createdAt,value
2022-12-11T00:01:51.837Z,1.00
2022-12-11T00:04:19.965Z,1.00
2022-12-11T00:06:53.716Z,0.90
2022-12-11T00:09:25.748Z,0.90
2022-12-11T00:11:54.845Z,0.90
2022-12-11T00:14:22.880Z,0.90
2022-12-11T00:16:51.634Z,0.90
2022-12-11T00:19:23.832Z,0.90
2022-12-11T00:21:53.616Z,0.90
2022-12-11T00:24:21.748Z,0.90
2022-12-11T00:26:49.777Z,0.90
2022-12-11T00:29:18.724Z,0.90
2022-12-11T00:31:50.526Z,0.90
2022-12-11T00:34:22.868Z,0.90
2022-12-11T00:36:51.906Z,0.90
2022-12-11T00:39:21.444Z,0.90
2022-12-11T00:41:49.761Z,0.90
2022-12-11T00:44:18.671Z,0.90
2022-12-11T00:46:49.667Z,0.90
2022-12-11T00:49:18.246Z,0.80
2022-12-11T00:51:46.374Z,0.80
2022-12-11T00:54:14.789Z,0.80
2022-12-11T00:56:46.882Z,0.70
2022-12-11T00:59:14.969Z,0.70
2022-12-11T01:01:43.632Z,0.70
2022-12-11T01:04:12.781Z,0.70
2022-12-11T01:06:41.755Z,0.70
2022-12-11T01:09:32.442Z,0.70
2022-12-11T01:12:02.790Z,0.70
2022-12-11T01:14:30.865Z,0.70
2022-12-11T01:16:59.841Z,0.70
2022-12-11T01:19:29.675Z,0.70
2022-12-11T01:22:01.580Z,0.70
2022-12-11T01:24:30.039Z,0.80
2022-12-11T01:26:58.645Z,0.70
2022-12-11T01:29:28.810Z,0.70
2022-12-11T01:31:58.330Z,0.60
2022-12-11T01:34:29.730Z,0.70
2022-12-11T01:36:58.824Z,0.70
2022-12-11T01:39:27.638Z,0.60
2022-12-11T01:41:58.713Z,0.60
2022-12-11T01:45:12.855Z,0.70
2022-12-11T01:47:42.766Z,0.60
2022-12-11T01:50:11.794Z,0.60
2022-12-11T01:52:41.633Z,0.60
2022-12-11T01:55:11.082Z,0.60
2022-12-11T01:57:42.794Z,0.60
2022-12-11T02:00:13.301Z,0.60
2022-12-11T02:02:46.946Z,0.60
2022-12-11T02:05:16.525Z,0.60
2022-12-11T02:07:48.362Z,0.60
2022-12-11T02:10:20.692Z,0.60
2022-12-11T02:13:02.689Z,0.60
2022-12-11T02:15:37.809Z,0.60
2022-12-11T02:18:16.236Z,0.60
2022-12-11T02:20:55.190Z,0.60
2022-12-11T02:23:53.817Z,0.60
2022-12-11T02:26:34.222Z,0.60
2022-12-11T02:29:09.415Z,0.60
2022-12-11T02:31:41.443Z,0.60
2022-12-11T02:34:17.049Z,0.70
2022-12-11T02:36:49.468Z,0.60
2022-12-11T02:39:19.655Z,0.60
2022-12-11T02:41:51.841Z,0.60
2022-12-11T02:44:27.731Z,0.60
2022-12-11T02:46:57.810Z,0.50
2022-12-11T02:49:27.416Z,0.60
2022-12-11T02:51:58.161Z,0.60
2022-12-11T02:54:30.972Z,0.60
2022-12-11T02:57:05.891Z,0.60
2022-12-11T02:59:37.500Z,0.60
2022-12-11T03:02:10.709Z,0.60
2022-12-11T03:04:39.294Z,0.50
2022-12-11T03:07:13.044Z,0.60
2022-12-11T03:09:46.624Z,0.60
2022-12-11T03:12:18.822Z,0.60
2022-12-11T03:14:48.924Z,0.50
2022-12-11T03:17:20.841Z,0.50
2022-12-11T03:19:53.796Z,0.50
2022-12-11T03:22:28.860Z,0.50
2022-12-11T03:25:02.800Z,0.40
2022-12-11T03:27:35.931Z,0.40
2022-12-11T03:30:09.183Z,0.40
2022-12-11T03:32:42.858Z,0.40
2022-12-11T03:35:18.539Z,0.30
2022-12-11T03:37:50.804Z,0.40
2022-12-11T03:40:22.846Z,0.30
2022-12-11T03:42:54.764Z,0.40
2022-12-11T03:45:26.418Z,0.30
2022-12-11T03:47:57.535Z,0.30
2022-12-11T03:50:27.670Z,0.30
2022-12-11T03:52:56.390Z,0.30
2022-12-11T03:55:25.815Z,0.30
2022-12-11T03:57:54.342Z,0.30
2022-12-11T04:00:24.269Z,0.30
2022-12-11T04:03:12.662Z,0.30
2022-12-11T04:05:42.029Z,0.30
2022-12-11T04:08:10.486Z,0.30
2022-12-11T04:10:41.525Z,0.30
2022-12-11T04:13:10.830Z,0.30
2022-12-11T04:15:40.764Z,0.20
2022-12-11T04:18:27.705Z,0.30
2022-12-11T04:21:16.712Z,0.30
2022-12-11T04:24:06.683Z,0.30
2022-12-11T04:26:35.895Z,0.20
2022-12-11T04:29:04.095Z,0.20
2022-12-11T04:31:37.813Z,0.20
2022-12-11T04:34:09.904Z,0.20
2022-12-11T04:36:38.095Z,0.20
2022-12-11T04:39:06.849Z,0.20
2022-12-11T04:41:35.823Z,0.20
2022-12-11T04:44:06.674Z,0.20
2022-12-11T04:46:37.791Z,0.20
2022-12-11T04:49:05.944Z,0.20
2022-12-11T04:51:33.956Z,0.20
2022-12-11T04:54:02.684Z,0.20
2022-12-11T04:56:30.741Z,0.20
2022-12-11T04:59:00.006Z,0.20
2022-12-11T05:01:31.314Z,0.20
2022-12-11T05:04:01.735Z,0.20
2022-12-11T05:06:30.861Z,0.20
2022-12-11T05:09:02.182Z,0.10
2022-12-11T05:11:32.469Z,0.20
2022-12-11T05:14:00.926Z,0.20
2022-12-11T05:16:29.096Z,0.10
2022-12-11T05:18:57.448Z,0.20
2022-12-11T05:21:34.825Z,0.20
2022-12-11T05:24:03.499Z,0.20
2022-12-11T05:26:32.704Z,0.20
2022-12-11T05:29:05.546Z,0.20
2022-12-11T05:31:34.880Z,0.20
2022-12-11T05:34:03.608Z,0.20
2022-12-11T05:36:35.313Z,0.20
2022-12-11T05:39:06.906Z,0.20
2022-12-11T05:41:35.123Z,0.20
2022-12-11T05:44:03.673Z,0.20
2022-12-11T05:46:32.795Z,0.20
2022-12-11T05:49:03.060Z,0.10
2022-12-11T05:51:35.708Z,0.10
2022-12-11T05:54:06.268Z,0.10
2022-12-11T05:56:36.283Z,0.10
2022-12-11T05:59:08.721Z,0.00
2022-12-11T06:01:39.925Z,0.00
2022-12-11T06:04:09.873Z,0.00
2022-12-11T06:06:40.481Z,0.00
2022-12-11T06:09:09.729Z,0.00
2022-12-11T06:11:41.620Z,0.00
2022-12-11T06:14:11.459Z,0.00
2022-12-11T06:16:39.662Z,-0.10
2022-12-11T06:19:08.135Z,-0.10
2022-12-11T06:21:37.045Z,-0.10
2022-12-11T06:24:08.942Z,-0.10
2022-12-11T06:26:37.857Z,-0.10
2022-12-11T06:29:10.969Z,-0.10
2022-12-11T06:31:43.173Z,-0.20
2022-12-11T06:34:13.887Z,-0.20
2022-12-11T06:36:42.405Z,-0.20
2022-12-11T06:39:14.526Z,-0.20
2022-12-11T06:41:46.591Z,-0.20
2022-12-11T06:44:14.883Z,-0.20
2022-12-11T06:46:42.907Z,-0.20
2022-12-11T06:49:11.907Z,-0.20
2022-12-11T06:51:42.510Z,-0.30
2022-12-11T06:54:12.734Z,-0.30
2022-12-11T06:56:40.865Z,-0.30
2022-12-11T06:59:12.556Z,-0.30
2022-12-11T07:01:40.965Z,-0.30
2022-12-11T07:04:10.810Z,-0.30
2022-12-11T07:06:41.188Z,-0.30
2022-12-11T07:09:09.925Z,-0.30
2022-12-11T07:11:39.855Z,-0.30
2022-12-11T07:14:08.944Z,-0.30
2022-12-11T07:16:37.407Z,-0.30
2022-12-11T07:19:09.219Z,-0.30
2022-12-11T07:21:37.914Z,-0.30
2022-12-11T07:24:06.806Z,-0.40
2022-12-11T07:26:35.879Z,-0.40
2022-12-11T07:29:05.272Z,-0.50
2022-12-11T07:31:37.332Z,-0.50
2022-12-11T07:34:07.935Z,-0.50
2022-12-11T07:36:36.327Z,-0.60
2022-12-11T07:39:05.338Z,-0.60
2022-12-11T07:41:34.572Z,-0.60
2022-12-11T07:44:03.911Z,-0.60
2022-12-11T07:46:35.510Z,-0.70
2022-12-11T07:49:03.597Z,-0.60
2022-12-11T07:51:33.446Z,-0.60
2022-12-11T07:54:03.305Z,-0.60
2022-12-11T07:56:35.124Z,-0.60
2022-12-11T07:59:04.944Z,-0.60
2022-12-11T08:01:43.267Z,-0.60
2022-12-11T08:04:17.384Z,-0.70
2022-12-11T08:06:45.492Z,-0.70
2022-12-11T08:09:21.112Z,-0.70
2022-12-11T08:11:52.492Z,-0.70
2022-12-11T08:14:21.727Z,-0.70
2022-12-11T08:16:51.300Z,-0.70
2022-12-11T08:19:19.965Z,-0.70
2022-12-11T08:21:48.195Z,-0.80
2022-12-11T08:24:20.266Z,-0.80
2022-12-11T08:26:49.198Z,-0.70
2022-12-11T08:29:17.397Z,-0.70
2022-12-11T08:31:47.168Z,-0.70
2022-12-11T08:34:16.908Z,-0.70
2022-12-11T08:36:45.908Z,-0.70
2022-12-11T08:39:14.193Z,-0.70
2022-12-11T08:41:42.417Z,-0.70
2022-12-11T08:44:17.123Z,-0.70
2022-12-11T08:46:45.400Z,-0.70
2022-12-11T08:49:17.903Z,-0.80
2022-12-11T08:51:45.959Z,-0.80
2022-12-11T08:54:14.125Z,-0.80
2022-12-11T08:56:44.301Z,-0.80
2022-12-11T08:59:12.391Z,-0.70
2022-12-11T09:01:40.493Z,-0.80
2022-12-11T09:04:08.730Z,-0.80
2022-12-11T09:06:38.258Z,-0.80
2022-12-11T09:09:06.860Z,-0.80
2022-12-11T09:11:39.174Z,-0.70
2022-12-11T09:14:08.410Z,-0.70
2022-12-11T09:16:40.219Z,-0.80
2022-12-11T09:19:10.256Z,-0.80
2022-12-11T09:21:40.176Z,-0.80
2022-12-11T09:24:10.452Z,-0.80
2022-12-11T09:26:41.020Z,-0.80
2022-12-11T09:29:10.256Z,-0.80
2022-12-11T09:31:38.810Z,-0.90
2022-12-11T09:34:09.985Z,-1.00
2022-12-11T09:36:42.556Z,-0.90
2022-12-11T09:39:17.126Z,-1.00
2022-12-11T09:41:54.764Z,-1.00
2022-12-11T09:44:33.518Z,-0.90
2022-12-11T09:47:02.392Z,-0.80
2022-12-11T09:49:38.844Z,-0.80
2022-12-11T09:52:14.320Z,-0.80
2022-12-11T09:54:51.171Z,-0.80
2022-12-11T09:57:32.690Z,-0.80
2022-12-11T10:00:25.652Z,-0.80
2022-12-11T10:03:10.676Z,-0.80
2022-12-11T10:05:47.666Z,-0.80
2022-12-11T10:08:27.604Z,-0.80
2022-12-11T10:11:04.429Z,-0.80
2022-12-11T10:13:37.814Z,-0.70
2022-12-11T10:16:19.095Z,-0.80
2022-12-11T10:18:48.795Z,-0.80
2022-12-11T10:21:19.410Z,-0.80
2022-12-11T10:23:55.474Z,-0.90
2022-12-11T10:26:24.513Z,-0.90
2022-12-11T10:28:53.127Z,-0.80
2022-12-11T10:31:31.864Z,-0.80
2022-12-11T10:34:02.903Z,-0.90
2022-12-11T10:36:33.617Z,-0.90
2022-12-11T10:39:03.698Z,-0.90
2022-12-11T10:41:39.805Z,-1.00
2022-12-11T10:44:18.407Z,-1.00
2022-12-11T10:46:48.169Z,-1.00
2022-12-11T10:49:25.127Z,-1.10
2022-12-11T10:51:57.160Z,-1.00
2022-12-11T10:54:34.934Z,-1.00
2022-12-11T10:57:04.669Z,-1.00
2022-12-11T10:59:37.915Z,-1.00
2022-12-11T11:02:10.820Z,-0.90
2022-12-11T11:04:41.506Z,-0.90
2022-12-11T11:07:14.776Z,-0.80
2022-12-11T11:09:50.921Z,-0.80
2022-12-11T11:12:22.004Z,-0.80
2022-12-11T11:15:01.194Z,-0.80
2022-12-11T11:17:33.816Z,-0.90
2022-12-11T11:20:14.722Z,-1.00
2022-12-11T11:22:45.936Z,-1.00
2022-12-11T11:25:20.973Z,-1.00
2022-12-11T11:27:54.351Z,-1.00
2022-12-11T11:30:25.829Z,-1.00
2022-12-11T11:32:56.964Z,-1.00
2022-12-11T11:35:32.132Z,-1.00
2022-12-11T11:38:12.048Z,-1.00
2022-12-11T11:40:46.821Z,-0.90
2022-12-11T11:43:30.348Z,-0.90
2022-12-11T11:46:05.609Z,-0.90
2022-12-11T11:48:42.525Z,-0.90
2022-12-11T11:51:16.888Z,-0.90
2022-12-11T11:53:51.042Z,-0.90
2022-12-11T11:56:23.809Z,-1.00
2022-12-11T11:59:04.894Z,-1.00
2022-12-11T12:01:33.443Z,-1.00
2022-12-11T12:04:06.886Z,-1.00
2022-12-11T12:06:50.785Z,-1.10
2022-12-11T12:09:35.731Z,-1.10
2022-12-11T12:12:22.761Z,-1.00
2022-12-11T12:15:18.351Z,-1.00
2022-12-11T12:17:55.944Z,-1.00
2022-12-11T12:20:34.955Z,-0.90
2022-12-11T12:23:14.537Z,-0.90
2022-12-11T12:25:47.897Z,-0.90
2022-12-11T12:28:28.056Z,-0.90
2022-12-11T12:31:06.886Z,-1.00
2022-12-11T12:33:46.084Z,-1.00
2022-12-11T12:36:23.068Z,-1.10
2022-12-11T12:38:56.270Z,-1.10
2022-12-11T12:41:32.951Z,-1.20
2022-12-11T12:44:13.838Z,-1.20
2022-12-11T12:46:52.387Z,-1.10
2022-12-11T12:49:36.835Z,-1.20
2022-12-11T12:52:07.588Z,-1.20
2022-12-11T12:54:37.812Z,-1.20
2022-12-11T12:57:10.015Z,-1.30
2022-12-11T12:59:39.826Z,-1.30
2022-12-11T13:02:16.374Z,-1.30
2022-12-11T13:05:01.730Z,-1.30
2022-12-11T13:07:32.806Z,-1.30
2022-12-11T13:10:05.307Z,-1.40
2022-12-11T13:12:43.985Z,-1.40
2022-12-11T13:15:39.087Z,-1.40
2022-12-11T13:18:35.956Z,-1.40
2022-12-11T13:21:28.966Z,-1.50
2022-12-11T13:24:08.146Z,-1.50
2022-12-11T13:26:36.786Z,-1.50
2022-12-11T13:29:06.065Z,-1.40
2022-12-11T13:31:40.838Z,-1.40
2022-12-11T13:34:18.538Z,-1.40
2022-12-11T13:36:51.720Z,-1.40
2022-12-11T13:39:27.494Z,-1.50
2022-12-11T13:41:59.329Z,-1.50
2022-12-11T13:44:30.726Z,-1.50
2022-12-11T13:47:04.672Z,-1.50
2022-12-11T13:49:37.828Z,-1.50
2022-12-11T13:52:09.008Z,-1.50
2022-12-11T13:54:37.963Z,-1.50
2022-12-11T13:57:18.007Z,-1.60
2022-12-11T13:59:50.140Z,-1.60
2022-12-11T14:02:24.108Z,-1.60
2022-12-11T14:04:56.780Z,-1.60
2022-12-11T14:07:28.923Z,-1.70
2022-12-11T14:10:02.439Z,-1.70
2022-12-11T14:12:32.731Z,-1.70
2022-12-11T14:15:07.504Z,-1.70
2022-12-11T14:17:37.859Z,-1.70
2022-12-11T14:20:08.391Z,-1.70
2022-12-11T14:22:36.797Z,-1.80
2022-12-11T14:25:24.891Z,-1.80
2022-12-11T14:27:56.366Z,-1.70
2022-12-11T14:30:26.745Z,-1.70
2022-12-11T14:33:02.517Z,-1.70
2022-12-11T14:35:38.606Z,-1.70
2022-12-11T14:38:14.269Z,-1.60
2022-12-11T14:40:46.525Z,-1.60
2022-12-11T14:43:20.250Z,-1.60
2022-12-11T14:45:50.925Z,-1.60
2022-12-11T14:48:28.868Z,-1.60
2022-12-11T14:51:03.433Z,-1.60
2022-12-11T14:53:35.744Z,-1.70
2022-12-11T14:56:06.882Z,-1.60
2022-12-11T14:58:43.394Z,-1.70
2022-12-11T15:01:23.940Z,-1.70
2022-12-11T15:04:04.747Z,-1.70
2022-12-11T15:06:34.687Z,-1.70
2022-12-11T15:09:20.217Z,-1.70
2022-12-11T15:11:52.370Z,-1.70
2022-12-11T15:14:23.705Z,-1.70
2022-12-11T15:16:57.515Z,-1.70
2022-12-11T15:19:30.305Z,-1.60
2022-12-11T15:22:06.564Z,-1.70
2022-12-11T15:24:39.357Z,-1.70
2022-12-11T15:27:25.212Z,-1.70
2022-12-11T15:29:53.605Z,-1.70
2022-12-11T15:32:23.030Z,-1.70
2022-12-11T15:34:54.254Z,-1.70
2022-12-11T15:37:25.013Z,-1.70
2022-12-11T15:39:58.144Z,-1.70
2022-12-11T15:42:29.052Z,-1.70
2022-12-11T15:44:57.678Z,-1.70
2022-12-11T15:47:32.749Z,-1.70
2022-12-11T15:50:08.771Z,-1.70
2022-12-11T15:52:41.324Z,-1.60
2022-12-11T15:55:10.494Z,-1.60
2022-12-11T15:57:39.998Z,-1.60
2022-12-11T16:00:09.838Z,-1.60
2022-12-11T16:02:38.142Z,-1.60
2022-12-11T16:05:09.074Z,-1.60
2022-12-11T16:07:37.687Z,-1.60
2022-12-11T16:10:07.139Z,-1.70
2022-12-11T16:12:35.388Z,-1.70
2022-12-11T16:15:04.923Z,-1.70
2022-12-11T16:17:36.361Z,-1.70
2022-12-11T16:20:05.144Z,-1.70
2022-12-11T16:22:35.106Z,-1.80
2022-12-11T16:25:03.219Z,-1.80
2022-12-11T16:27:32.948Z,-1.80
2022-12-11T16:30:01.042Z,-1.80
2022-12-11T16:32:31.915Z,-1.70
2022-12-11T16:35:00.922Z,-1.70
2022-12-11T16:37:30.026Z,-1.80
2022-12-11T16:39:59.956Z,-1.80
2022-12-11T16:42:32.640Z,-1.80
2022-12-11T16:45:07.055Z,-1.80
2022-12-11T16:47:35.597Z,-1.80
2022-12-11T16:50:09.204Z,-1.90
2022-12-11T16:52:37.992Z,-1.90
2022-12-11T16:55:08.401Z,-1.90
2022-12-11T16:57:37.214Z,-1.90
2022-12-11T17:00:07.428Z,-1.90
2022-12-11T17:02:35.899Z,-1.90
2022-12-11T17:05:04.281Z,-1.90
2022-12-11T17:07:32.864Z,-1.90
2022-12-11T17:10:02.207Z,-2.00
2022-12-11T17:12:35.154Z,-2.00
2022-12-11T17:15:05.967Z,-2.00
2022-12-11T17:17:35.028Z,-2.00
2022-12-11T17:20:03.911Z,-2.00
2022-12-11T17:22:33.053Z,-2.00
2022-12-11T17:25:03.453Z,-2.00
2022-12-11T17:27:33.014Z,-2.00
2022-12-11T17:30:01.700Z,-2.00
2022-12-11T17:32:30.004Z,-1.90
2022-12-11T17:34:58.894Z,-1.90
2022-12-11T17:37:28.020Z,-2.00
2022-12-11T17:40:01.890Z,-1.90
2022-12-11T17:42:31.067Z,-1.90
2022-12-11T17:45:00.469Z,-1.90
2022-12-11T17:47:29.017Z,-1.90
2022-12-11T17:50:01.262Z,-1.90
2022-12-11T17:52:34.939Z,-2.00
2022-12-11T17:55:08.041Z,-2.00
2022-12-11T17:57:38.557Z,-2.00
2022-12-11T18:00:10.904Z,-2.00
2022-12-11T18:02:45.018Z,-2.00
2022-12-11T18:05:13.757Z,-2.10
2022-12-11T18:07:43.102Z,-2.10
2022-12-11T18:10:11.903Z,-2.10
2022-12-11T18:12:40.129Z,-2.10
2022-12-11T18:15:10.965Z,-2.10
2022-12-11T18:17:40.019Z,-2.10
2022-12-11T18:20:09.234Z,-2.00
2022-12-11T18:22:38.204Z,-2.00
2022-12-11T18:25:11.963Z,-2.00
2022-12-11T18:27:42.104Z,-2.00
2022-12-11T18:30:14.905Z,-2.00
2022-12-11T18:32:50.776Z,-2.00
2022-12-11T18:35:20.566Z,-2.00
2022-12-11T18:37:49.300Z,-2.00
2022-12-11T18:40:18.034Z,-1.90
2022-12-11T18:42:49.633Z,-1.90
2022-12-11T18:45:19.961Z,-1.90
2022-12-11T18:47:48.399Z,-1.80
2022-12-11T18:50:16.657Z,-1.80
2022-12-11T18:52:45.063Z,-1.90
2022-12-11T18:55:15.245Z,-1.80
2022-12-11T18:57:47.386Z,-1.90
2022-12-11T19:00:16.920Z,-1.90
2022-12-11T19:02:47.032Z,-1.90
2022-12-11T19:05:15.349Z,-1.90
2022-12-11T19:07:45.051Z,-1.90
2022-12-11T19:10:16.388Z,-1.90
2022-12-11T19:12:44.564Z,-1.90
2022-12-11T19:15:14.050Z,-1.90
2022-12-11T19:17:43.576Z,-1.90
2022-12-11T19:20:40.471Z,-1.90
2022-12-11T19:23:02.303Z,-2.00
2022-12-11T19:25:30.605Z,-1.90
2022-12-11T19:27:58.983Z,-2.00
2022-12-11T19:30:28.626Z,-2.00
2022-12-11T19:33:00.348Z,-2.00
2022-12-11T19:35:29.954Z,-2.00
2022-12-11T19:37:58.318Z,-2.00
2022-12-11T19:40:26.857Z,-2.10
2022-12-11T19:42:57.150Z,-2.00
2022-12-11T19:45:25.264Z,-2.00
2022-12-11T19:47:55.229Z,-2.10
2022-12-11T19:50:23.535Z,-2.20
2022-12-11T19:52:53.244Z,-2.20
2022-12-11T19:55:25.220Z,-2.20
2022-12-11T19:57:56.080Z,-2.20
2022-12-11T20:00:24.692Z,-2.30
2022-12-11T20:02:53.016Z,-2.30
2022-12-11T20:05:21.087Z,-2.30
2022-12-11T20:07:52.500Z,-2.20
2022-12-11T20:10:25.946Z,-2.20
2022-12-11T20:12:56.565Z,-2.20
2022-12-11T20:15:27.656Z,-2.20
2022-12-11T20:17:56.876Z,-2.30
2022-12-11T20:20:27.664Z,-2.30
2022-12-11T20:22:57.367Z,-2.30
2022-12-11T20:25:28.723Z,-2.20
2022-12-11T20:27:56.870Z,-2.20
2022-12-11T20:30:25.897Z,-2.20
2022-12-11T20:32:54.403Z,-2.30
2022-12-11T20:35:22.464Z,-2.30
2022-12-11T20:37:50.639Z,-2.20
2022-12-11T20:40:22.104Z,-2.20
2022-12-11T20:42:51.665Z,-2.30
2022-12-11T20:45:20.083Z,-2.30
2022-12-11T20:47:51.056Z,-2.30
2022-12-11T20:50:19.445Z,-2.30
2022-12-11T20:52:47.744Z,-2.30
2022-12-11T20:55:16.052Z,-2.30
2022-12-11T20:57:45.723Z,-2.30
2022-12-11T21:00:18.482Z,-2.30
2022-12-11T21:02:46.951Z,-2.30
2022-12-11T21:05:15.439Z,-2.30
2022-12-11T21:07:45.199Z,-2.30
2022-12-11T21:10:14.147Z,-2.30
2022-12-11T21:12:46.423Z,-2.30
2022-12-11T21:15:19.376Z,-2.30
2022-12-11T21:17:48.374Z,-2.20
2022-12-11T21:20:21.929Z,-2.20
2022-12-11T21:22:50.203Z,-2.20
2022-12-11T21:25:18.359Z,-2.20
2022-12-11T21:27:50.316Z,-2.20
2022-12-11T21:30:20.231Z,-2.20
2022-12-11T21:32:50.151Z,-2.20
2022-12-11T21:35:18.482Z,-2.10
2022-12-11T21:37:47.200Z,-2.10
2022-12-11T21:40:15.805Z,-2.10
2022-12-11T21:42:45.137Z,-2.10
2022-12-11T21:48:03.326Z,-2.10
2022-12-11T21:50:31.944Z,-2.10
2022-12-11T21:53:02.584Z,-2.20
2022-12-11T21:55:35.002Z,-2.20
2022-12-11T21:58:07.110Z,-2.20
2022-12-11T22:00:37.962Z,-2.20
2022-12-11T22:03:07.962Z,-2.20
2022-12-11T22:05:38.181Z,-2.20
2022-12-11T22:08:09.237Z,-2.20
2022-12-11T22:10:37.845Z,-2.20
2022-12-11T22:13:06.931Z,-2.20
2022-12-11T22:15:36.156Z,-2.20
2022-12-11T22:18:07.463Z,-2.10
2022-12-11T22:20:35.990Z,-2.10
2022-12-11T22:23:04.582Z,-2.10
2022-12-11T22:25:32.741Z,-2.10
2022-12-11T22:28:01.167Z,-2.20
2022-12-11T22:30:29.392Z,-2.10
2022-12-11T22:32:57.691Z,-2.10
2022-12-11T22:35:27.654Z,-2.10
2022-12-11T22:37:55.914Z,-2.10
2022-12-11T22:40:24.642Z,-2.10
2022-12-11T22:42:53.020Z,-2.10
2022-12-11T22:45:21.909Z,-2.10
2022-12-11T22:47:50.145Z,-2.10
2022-12-11T22:50:21.531Z,-2.10
2022-12-11T22:52:52.671Z,-2.10
2022-12-11T22:55:20.704Z,-2.10
2022-12-11T22:57:50.153Z,-2.10
2022-12-11T23:00:20.107Z,-2.10
2022-12-11T23:02:50.178Z,-2.10
2022-12-11T23:05:19.271Z,-2.20
2022-12-11T23:07:48.215Z,-2.10
2022-12-11T23:10:18.151Z,-2.20
2022-12-11T23:12:46.977Z,-2.20
2022-12-11T23:15:18.733Z,-2.20
2022-12-11T23:17:50.502Z,-2.20
2022-12-11T23:20:18.796Z,-2.20
2022-12-11T23:22:47.006Z,-2.20
2022-12-11T23:25:17.234Z,-2.20
2022-12-11T23:27:46.409Z,-2.20
2022-12-11T23:30:16.545Z,-2.20
2022-12-11T23:32:45.903Z,-2.20
2022-12-11T23:35:14.957Z,-2.20
2022-12-11T23:37:44.145Z,-2.20
2022-12-11T23:40:14.972Z,-2.10
2022-12-11T23:42:45.111Z,-2.20
2022-12-11T23:45:14.429Z,-2.20
2022-12-11T23:47:43.142Z,-2.20
2022-12-11T23:50:12.120Z,-2.20
2022-12-11T23:52:42.556Z,-2.20
2022-12-11T23:55:12.205Z,-2.20
2022-12-11T23:57:40.575Z,-2.20
